Sunday, January 20, 2019, 6:54 AM GMT
Back to Local

CWIG, Ile Aux Grues, Que.

Location: , , Canada Lat: 47.067
Local Time: 6:54 AM GMT ( 6:54 GMT) Lon: -70.533
Time Zone: GMT Elev: 59 ft

Show me the last for .
Show Coded

Time T Td Feel RH Dir Speed Gust Alt SLP Vis Weather Sky Remarks
2019-01-20 06:00 - - - 0 40° 17 - - - 0 Peak wind: 26 mph (23 kts) from 50° at 24 min
2019-01-20 05:00 - - - 0 40° 18 24 - - 0 Peak wind: 24 mph (21 kts) from 40° at 24 min
2019-01-20 04:00 - - - 0 40° 17 - - - 0 Peak wind: 23 mph (20 kts) from 30° at 58 min
2019-01-20 03:00 - - - 0 40° 12 - - - 0 None
2019-01-20 02:00 - - - 0 40° 12 - - - 0 None
2019-01-20 01:00 - - - 0 60° 8 - - - 0 None
2019-01-20 00:00 - - - 0 80° 3 - - - 0 None
2019-01-19 23:00 - - - 0 170° 1 - - - 0 None
2019-01-19 22:00 - - - 0 220° 2 - - - 0 None
2019-01-19 21:00 - - - 0 170° 5 - - - 0 None
2019-01-19 20:00 - - - 0 200° 5 - - - 0 None
2019-01-19 19:00 - - - 0 60° 1 - - - 0 None
2019-01-19 18:00 - - - 0 240° 2 - - - 0 None
2019-01-19 17:00 - - - 0 230° 6 - - - 0 None
2019-01-19 16:00 - - - 0 210° 10 - - - 0 None
2019-01-19 15:00 - - - 0 210° 12 - - - 0 None
2019-01-19 14:00 - - - 0 210° 10 - - - 0 None
2019-01-19 13:00 - - - 0 190° 9 - - - 0 None
2019-01-19 12:00 - - - 0 100° 10 - - - 0 None
2019-01-19 11:00 - - - 0 110° 14 - - - 0 Peak wind: 21 mph (19 kts) from 90° at 38 min
2019-01-19 10:00 - - - 0 80° 16 22 - - 0 Peak wind: 21 mph (19 kts) from 100° at 55 min
2019-01-19 09:00 - - - 0 40° 12 - - - 0 None
2019-01-19 08:00 - - - 0 320° 12 - - - 0 None
2019-01-19 07:00 - - - 0 290° 10 - - - 0 Peak wind: 20 mph (18 kts) from 260° at 20 min

Support USWX by starting your Amazon purchase here.